Buoy 41936

sailwx.info

Track history (hours):
 
Tides and Currents Weather Stations Pressure Air Temp Water Temp Dewpoint Dewpoint Depression Visibility Wind Speed Wind Dir Waves Ship Positions

Drifting buoy 41936

Last reported at 2015-Jan-29 08:00 UTC. Time now 2015-Jan-29 10:23 UTC.
Position N 34°30' W 064°00'.

Barometer 1008.3 mb
Water temperature 20.8 ° C

Date/timePositionNaut miles runAvg speedWind from/ knotsBaromVisibWave heightAir tempDewpointWater temp
2015-Jan-29 08:00N 34°30' W 064°00'0 0.0 1008.3 20.8
2015-Jan-29 07:00N 34°30' W 064°00'4 0.4 1008.4 20.8
2015-Jan-28 23:00N 34°27' W 064°03'0 0.1 1010.7 20.9
2015-Jan-28 22:00N 34°27' W 064°03'2 0.8 1009.8 20.9
2015-Jan-28 20:00N 34°25' W 064°04'0 0.0 1009.4 20.9
2015-Jan-28 19:00N 34°25' W 064°04'0 0.2 1008.9 20.9
2015-Jan-28 18:00N 34°25' W 064°04'6 1.5 1009.1 20.9
2015-Jan-28 14:00N 34°21' W 064°09'1 0.3 1009.2 20.9
2015-Jan-28 10:00N 34°20' W 064°10'0 0.0 1005.1 20.9
2015-Jan-28 09:00N 34°20' W 064°10'6 2.8 1005.3 20.9
2015-Jan-28 07:00N 34°18' W 064°16'3 0.7 1004.2 20.9
2015-Jan-28 02:00N 34°18' W 064°20'0 0.0 1004.1 20.9
2015-Jan-28 01:00N 34°18' W 064°20'0 0.0 1003.8 20.9
2015-Jan-27 23:00N 34°18' W 064°20'6 2.8 1002.8 20.9
2015-Jan-27 21:00N 34°17' W 064°27'0 0.0 1001.9 20.9
2015-Jan-27 20:00N 34°17' W 064°27'5 2.6 1000.9 20.9
2015-Jan-27 18:00N 34°15' W 064°32'0 0.0 1000.9 20.9
2015-Jan-27 15:00N 34°15' W 064°32'1 1.1 1001.6 20.9
2015-Jan-27 14:00N 34°14' W 064°34'2 0.5 1001.9 20.9
2015-Jan-27 11:00N 34°14' W 064°36'4 3.6 1000.8 20.9
2015-Jan-27 10:00N 34°15' W 064°40'0 0.0 1000.3 20.9
2015-Jan-27 09:00N 34°15' W 064°40'0 0.0 999.8 20.9
2015-Jan-27 07:00N 34°15' W 064°40'6 1.2 1000.2 20.9
2015-Jan-27 02:00N 34°15' W 064°47'2 1.1 1000.7 20.9
2015-Jan-27 00:00N 34°15' W 064°50'1 0.6 1004.1 20.9
2015-Jan-26 23:00N 34°14' W 064°50'0 0.5 1006.4 20.9
2015-Jan-26 22:00N 34°14' W 064°50'3 2.5 1007.2 20.9
2015-Jan-26 21:00N 34°13' W 064°53'0 0.0 1008.2 20.9
2015-Jan-26 20:00N 34°13' W 064°53'3 2.5 1008.9 20.9
2015-Jan-26 19:00N 34°13' W 064°57'3 2.8 1010.0 20.9
2015-Jan-26 18:00N 34°13' W 064°53'2 0.7 1010.9 20.9
2015-Jan-26 15:00N 34°13' W 064°56'1 0.7 1014.4 20.9
2015-Jan-26 14:00N 34°13' W 064°57'2 0.7 1014.5 20.9
2015-Jan-26 11:00N 34°14' W 064°59'0 0.0 1014.9 20.9
2015-Jan-26 10:00N 34°14' W 064°59'3 2.6 1015.0 20.9
2015-Jan-26 09:00N 34°15' W 065°02'6 3.0 1015.0 20.9
2015-Jan-26 07:00N 34°16' W 065°09'6 6.0 1014.8 20.9
2015-Jan-26 06:00N 34°15' W 065°02'6 1.6 1014.7 20.9
2015-Jan-26 02:00N 34°16' W 065°09'4 3.8 1013.6 21.0
2015-Jan-26 01:00N 34°15' W 065°14'1 0.4 1013.6 21.0
2015-Jan-25 23:00N 34°15' W 065°15'0 0.1 1013.0 21.1
2015-Jan-25 21:00N 34°15' W 065°15'1 1.0 1011.7 21.1
2015-Jan-25 20:00N 34°15' W 065°16'1 1.0 1011.1 21.1
2015-Jan-25 19:00N 34°14' W 065°17'2 0.4 1010.6 21.1
2015-Jan-25 14:00N 34°15' W 065°19'2 0.6 1009.4 21.1
2015-Jan-25 11:00N 34°17' W 065°21'2 2.3 1006.0 21.2
2015-Jan-25 10:00N 34°17' W 065°23'0 0.0 1004.9 21.2
2015-Jan-25 09:00N 34°17' W 065°23'4 2.2 1003.5 21.2
2015-Jan-25 07:00N 34°15' W 065°28'0 0.0 1002.3 21.3
2015-Jan-25 06:00N 34°15' W 065°28'0 0.0 1002.0 21.3
2015-Jan-25 03:00N 34°15' W 065°28'0 0.0 1002.3 21.3
2015-Jan-25 02:00N 34°15' W 065°28'3 2.6 1004.3 21.3
2015-Jan-25 01:00N 34°14' W 065°30'0 0.0 1005.1 21.3
2015-Jan-24 23:00N 34°14' W 065°30'2 0.8 1007.2 21.3
2015-Jan-24 21:00N 34°12' W 065°30'1 0.7 1008.1 21.3
2015-Jan-24 20:00N 34°11' W 065°31'2 0.7 1009.2 21.3
2015-Jan-24 17:00N 34°09' W 065°31'0 0.0 1012.3 21.3
2015-Jan-24 16:00N 34°09' W 065°31'0 0.1 1013.7 21.4
2015-Jan-24 15:00N 34°09' W 065°31'2 1.7 1015.4 21.4
2015-Jan-24 14:00N 34°08' W 065°32'0 0.0 1016.2 21.4
2015-Jan-24 11:00N 34°08' W 065°32'0 0.2 1017.8 21.3
2015-Jan-24 10:00N 34°08' W 065°33'0 0.5 1018.0 21.3
2015-Jan-24 09:00N 34°08' W 065°33'0 0.4 1018.0 21.3
2015-Jan-24 08:00N 34°07' W 065°33'0 0.0 1018.9 21.4
2015-Jan-24 07:00N 34°07' W 065°33'0 0.1 1019.4 21.3
2015-Jan-24 06:00N 34°07' W 065°32'1 0.3 1020.0 21.4
2015-Jan-24 02:00N 34°06' W 065°33'0 0.4 1021.4 21.4
2015-Jan-24 01:00N 34°06' W 065°33'0 0.0 1021.7 21.4
2015-Jan-24 00:00N 34°06' W 065°33'2 0.8 1021.6 21.4
2015-Jan-23 22:00N 34°05' W 065°31'0 0.3 1020.9 21.4
2015-Jan-23 21:00N 34°05' W 065°31'2 0.8 1020.8 21.4
2015-Jan-23 19:00N 34°05' W 065°29'0 0.0 1020.8 21.4
2015-Jan-23 18:00N 34°05' W 065°29'0 0.0 1020.7 21.4
2015-Jan-23 17:00N 34°05' W 065°29'0 0.0 1020.7 21.4
2015-Jan-23 16:00N 34°05' W 065°29'1 1.4 1021.4 21.4
2015-Jan-23 15:00N 34°04' W 065°31'0 0.0 1022.3 21.4
2015-Jan-23 14:00N 34°04' W 065°31'1 1.3 1021.8 21.4
2015-Jan-23 13:00N 34°04' W 065°30'0 0.2 1020.9 21.4
2015-Jan-23 11:00N 34°03' W 065°29'0 0.4 1019.9 21.4
2015-Jan-23 10:00N 34°03' W 065°29'0 0.2 1019.8 21.4
2015-Jan-23 09:00N 34°03' W 065°29'0 0.2 1019.3 21.4
2015-Jan-23 08:00N 34°03' W 065°29'2 0.9 1019.4 21.4
2015-Jan-23 06:00N 34°03' W 065°26'0 0.0 1019.3 21.4
2015-Jan-23 05:00N 34°03' W 065°26'1 0.5 1019.6 21.4
2015-Jan-23 02:00N 34°02' W 065°28'0 0.0 1020.1 21.4
2015-Jan-23 01:00N 34°02' W 065°28'0 0.4 1019.5 21.4
2015-Jan-23 00:00N 34°02' W 065°27'2 0.4 1019.9 21.4
2015-Jan-22 19:00N 34°02' W 065°25'0 0.0 1017.8 21.5
2015-Jan-22 18:00N 34°02' W 065°25'1 0.2 1017.4 21.5
2015-Jan-22 15:00N 34°01' W 065°24'0 0.4 1018.6 21.5
2015-Jan-22 14:00N 34°01' W 065°24'1 0.5 1018.5 21.5
2015-Jan-22 11:00N 34°00' W 065°23'3 1.0 1017.6 21.5
2015-Jan-22 08:00N 33°58' W 065°20'0 0.0 1017.4 21.5
2015-Jan-22 06:00N 33°58' W 065°20'0 0.1 1018.2 21.5
2015-Jan-22 02:00N 33°58' W 065°21'2 1.6 1018.8 21.5
2015-Jan-22 01:00N 33°57' W 065°19'3 0.4 1018.8 21.5
2015-Jan-21 18:00N 33°56' W 065°16'1 0.2 1018.1 21.5
2015-Jan-21 14:00N 33°55' W 065°15'1 0.4 1018.9 21.5
2015-Jan-21 11:00N 33°54' W 065°15'1 1.1 1018.5 21.5
2015-Jan-21 10:00N 33°53' W 065°14'0 0.0 1017.7 21.5
2015-Jan-21 07:00N 33°53' W 065°14'0 0.0 1018.2 21.5
2015-Jan-21 06:00N 33°53' W 065°14'1 0.3 1018.2 21.5
2015-Jan-21 02:00N 33°53' W 065°13'0 0.2 1018.9 21.5
2015-Jan-21 01:00N 33°52' W 065°13'1 0.4 1018.7 21.5
2015-Jan-20 22:00N 33°52' W 065°12'0 0.1 1018.5 21.5
2015-Jan-20 21:00N 33°52' W 065°12'1 0.6 1018.5 21.5
2015-Jan-20 20:00N 33°51' W 065°11'1 0.4 1018.4 21.5
2015-Jan-20 18:00N 33°51' W 065°12'1 0.4 1017.9 21.5
2015-Jan-20 15:00N 33°50' W 065°11'1 0.7 1019.1 21.5
2015-Jan-20 14:00N 33°50' W 065°10'0 0.2 1018.8 21.5
2015-Jan-20 12:00N 33°50' W 065°10'2 0.8 1017.3 21.5
2015-Jan-20 10:00N 33°49' W 065°09'0 0.0 1015.7 21.5
2015-Jan-20 08:00N 33°49' W 065°09'0 0.1 1015.4 21.5
2015-Jan-20 07:00N 33°49' W 065°09'0 0.0 1015.3 21.5
2015-Jan-20 06:00N 33°49' W 065°09'2 0.5 1015.0 21.5
2015-Jan-20 03:00N 33°48' W 065°07'0 0.4 1014.3 21.5
2015-Jan-20 02:00N 33°48' W 065°07'1 0.7 1013.6 21.5
2015-Jan-20 01:00N 33°48' W 065°06'0 0.0 1013.0 21.5
2015-Jan-20 00:00N 33°48' W 065°06'0 0.2 1012.8 21.5
2015-Jan-19 22:00N 33°48' W 065°06'1 0.7 1011.6 21.5
2015-Jan-19 21:00N 33°48' W 065°05'0 0.1 1010.8 21.6
2015-Jan-19 20:00N 33°48' W 065°05'1 0.8 1010.2 21.6
2015-Jan-19 19:00N 33°48' W 065°04'1 0.8 1009.8 21.6
2015-Jan-19 18:00N 33°49' W 065°03'0 0.0 1009.8 21.7
2015-Jan-19 16:00N 33°49' W 065°03'0 0.1 1010.6 21.7
2015-Jan-19 14:00N 33°49' W 065°03'2 0.5 1009.5 21.6
2015-Jan-19 11:00N 33°48' W 065°02'1 0.5 1010.8 21.6
2015-Jan-19 09:00N 33°49' W 065°00'   1012.2 21.6
Track history (hours):
 
Tides and Currents Weather Stations Pressure Air Temp Water Temp Dewpoint Dewpoint Depression Visibility Wind Speed Wind Dir Waves Ship Positions

Drifting buoy 41936

Last reported at 2015-Jan-29 08:00 UTC. Time now 2015-Jan-29 10:23 UTC.
Position N 34°30' W 064°00'.

Barometer 1008.3 mb
Water temperature 20.8 ° C

Date/timePositionNaut miles runAvg speedWind from/ knotsBaromVisibWave heightAir tempDewpointWater temp
2015-Jan-29 08:00N 34°30' W 064°00'0 0.0 1008.3 20.8
2015-Jan-29 07:00N 34°30' W 064°00'4 0.4 1008.4 20.8
2015-Jan-28 23:00N 34°27' W 064°03'0 0.1 1010.7 20.9
2015-Jan-28 22:00N 34°27' W 064°03'2 0.8 1009.8 20.9
2015-Jan-28 20:00N 34°25' W 064°04'0 0.0 1009.4 20.9
2015-Jan-28 19:00N 34°25' W 064°04'0 0.2 1008.9 20.9
2015-Jan-28 18:00N 34°25' W 064°04'6 1.5 1009.1 20.9
2015-Jan-28 14:00N 34°21' W 064°09'1 0.3 1009.2 20.9
2015-Jan-28 10:00N 34°20' W 064°10'0 0.0 1005.1 20.9
2015-Jan-28 09:00N 34°20' W 064°10'6 2.8 1005.3 20.9
2015-Jan-28 07:00N 34°18' W 064°16'3 0.7 1004.2 20.9
2015-Jan-28 02:00N 34°18' W 064°20'0 0.0 1004.1 20.9
2015-Jan-28 01:00N 34°18' W 064°20'0 0.0 1003.8 20.9
2015-Jan-27 23:00N 34°18' W 064°20'6 2.8 1002.8 20.9
2015-Jan-27 21:00N 34°17' W 064°27'0 0.0 1001.9 20.9
2015-Jan-27 20:00N 34°17' W 064°27'5 2.6 1000.9 20.9
2015-Jan-27 18:00N 34°15' W 064°32'0 0.0 1000.9 20.9
2015-Jan-27 15:00N 34°15' W 064°32'1 1.1 1001.6 20.9
2015-Jan-27 14:00N 34°14' W 064°34'2 0.5 1001.9 20.9
2015-Jan-27 11:00N 34°14' W 064°36'4 3.6 1000.8 20.9
2015-Jan-27 10:00N 34°15' W 064°40'0 0.0 1000.3 20.9
2015-Jan-27 09:00N 34°15' W 064°40'0 0.0 999.8 20.9
2015-Jan-27 07:00N 34°15' W 064°40'6 1.2 1000.2 20.9
2015-Jan-27 02:00N 34°15' W 064°47'2 1.1 1000.7 20.9
2015-Jan-27 00:00N 34°15' W 064°50'1 0.6 1004.1 20.9
2015-Jan-26 23:00N 34°14' W 064°50'0 0.5 1006.4 20.9
2015-Jan-26 22:00N 34°14' W 064°50'3 2.5 1007.2 20.9
2015-Jan-26 21:00N 34°13' W 064°53'0 0.0 1008.2 20.9
2015-Jan-26 20:00N 34°13' W 064°53'3 2.5 1008.9 20.9
2015-Jan-26 19:00N 34°13' W 064°57'3 2.8 1010.0 20.9
2015-Jan-26 18:00N 34°13' W 064°53'2 0.7 1010.9 20.9
2015-Jan-26 15:00N 34°13' W 064°56'1 0.7 1014.4 20.9
2015-Jan-26 14:00N 34°13' W 064°57'2 0.7 1014.5 20.9
2015-Jan-26 11:00N 34°14' W 064°59'0 0.0 1014.9 20.9
2015-Jan-26 10:00N 34°14' W 064°59'3 2.6 1015.0 20.9
2015-Jan-26 09:00N 34°15' W 065°02'6 3.0 1015.0 20.9
2015-Jan-26 07:00N 34°16' W 065°09'6 6.0 1014.8 20.9
2015-Jan-26 06:00N 34°15' W 065°02'6 1.6 1014.7 20.9
2015-Jan-26 02:00N 34°16' W 065°09'4 3.8 1013.6 21.0
2015-Jan-26 01:00N 34°15' W 065°14'1 0.4 1013.6 21.0
2015-Jan-25 23:00N 34°15' W 065°15'0 0.1 1013.0 21.1
2015-Jan-25 21:00N 34°15' W 065°15'1 1.0 1011.7 21.1
2015-Jan-25 20:00N 34°15' W 065°16'1 1.0 1011.1 21.1
2015-Jan-25 19:00N 34°14' W 065°17'2 0.4 1010.6 21.1
2015-Jan-25 14:00N 34°15' W 065°19'2 0.6 1009.4 21.1
2015-Jan-25 11:00N 34°17' W 065°21'2 2.3 1006.0 21.2
2015-Jan-25 10:00N 34°17' W 065°23'0 0.0 1004.9 21.2
2015-Jan-25 09:00N 34°17' W 065°23'4 2.2 1003.5 21.2
2015-Jan-25 07:00N 34°15' W 065°28'0 0.0 1002.3 21.3
2015-Jan-25 06:00N 34°15' W 065°28'0 0.0 1002.0 21.3
2015-Jan-25 03:00N 34°15' W 065°28'0 0.0 1002.3 21.3
2015-Jan-25 02:00N 34°15' W 065°28'3 2.6 1004.3 21.3
2015-Jan-25 01:00N 34°14' W 065°30'0 0.0 1005.1 21.3
2015-Jan-24 23:00N 34°14' W 065°30'2 0.8 1007.2 21.3
2015-Jan-24 21:00N 34°12' W 065°30'1 0.7 1008.1 21.3
2015-Jan-24 20:00N 34°11' W 065°31'2 0.7 1009.2 21.3
2015-Jan-24 17:00N 34°09' W 065°31'0 0.0 1012.3 21.3
2015-Jan-24 16:00N 34°09' W 065°31'0 0.1 1013.7 21.4
2015-Jan-24 15:00N 34°09' W 065°31'2 1.7 1015.4 21.4
2015-Jan-24 14:00N 34°08' W 065°32'0 0.0 1016.2 21.4
2015-Jan-24 11:00N 34°08' W 065°32'0 0.2 1017.8 21.3
2015-Jan-24 10:00N 34°08' W 065°33'0 0.5 1018.0 21.3
2015-Jan-24 09:00N 34°08' W 065°33'0 0.4 1018.0 21.3
2015-Jan-24 08:00N 34°07' W 065°33'0 0.0 1018.9 21.4
2015-Jan-24 07:00N 34°07' W 065°33'0 0.1 1019.4 21.3
2015-Jan-24 06:00N 34°07' W 065°32'1 0.3 1020.0 21.4
2015-Jan-24 02:00N 34°06' W 065°33'0 0.4 1021.4 21.4
2015-Jan-24 01:00N 34°06' W 065°33'0 0.0 1021.7 21.4
2015-Jan-24 00:00N 34°06' W 065°33'2 0.8 1021.6 21.4
2015-Jan-23 22:00N 34°05' W 065°31'0 0.3 1020.9 21.4
2015-Jan-23 21:00N 34°05' W 065°31'2 0.8 1020.8 21.4
2015-Jan-23 19:00N 34°05' W 065°29'0 0.0 1020.8 21.4
2015-Jan-23 18:00N 34°05' W 065°29'0 0.0 1020.7 21.4
2015-Jan-23 17:00N 34°05' W 065°29'0 0.0 1020.7 21.4
2015-Jan-23 16:00N 34°05' W 065°29'1 1.4 1021.4 21.4
2015-Jan-23 15:00N 34°04' W 065°31'0 0.0 1022.3 21.4
2015-Jan-23 14:00N 34°04' W 065°31'1 1.3 1021.8 21.4
2015-Jan-23 13:00N 34°04' W 065°30'0 0.2 1020.9 21.4
2015-Jan-23 11:00N 34°03' W 065°29'0 0.4 1019.9 21.4
2015-Jan-23 10:00N 34°03' W 065°29'0 0.2 1019.8 21.4
2015-Jan-23 09:00N 34°03' W 065°29'0 0.2 1019.3 21.4
2015-Jan-23 08:00N 34°03' W 065°29'2 0.9 1019.4 21.4
2015-Jan-23 06:00N 34°03' W 065°26'0 0.0 1019.3 21.4
2015-Jan-23 05:00N 34°03' W 065°26'1 0.5 1019.6 21.4
2015-Jan-23 02:00N 34°02' W 065°28'0 0.0 1020.1 21.4
2015-Jan-23 01:00N 34°02' W 065°28'0 0.4 1019.5 21.4
2015-Jan-23 00:00N 34°02' W 065°27'2 0.4 1019.9 21.4
2015-Jan-22 19:00N 34°02' W 065°25'0 0.0 1017.8 21.5
2015-Jan-22 18:00N 34°02' W 065°25'1 0.2 1017.4 21.5
2015-Jan-22 15:00N 34°01' W 065°24'0 0.4 1018.6 21.5
2015-Jan-22 14:00N 34°01' W 065°24'1 0.5 1018.5 21.5
2015-Jan-22 11:00N 34°00' W 065°23'3 1.0 1017.6 21.5
2015-Jan-22 08:00N 33°58' W 065°20'0 0.0 1017.4 21.5
2015-Jan-22 06:00N 33°58' W 065°20'0 0.1 1018.2 21.5
2015-Jan-22 02:00N 33°58' W 065°21'2 1.6 1018.8 21.5
2015-Jan-22 01:00N 33°57' W 065°19'3 0.4 1018.8 21.5
2015-Jan-21 18:00N 33°56' W 065°16'1 0.2 1018.1 21.5
2015-Jan-21 14:00N 33°55' W 065°15'1 0.4 1018.9 21.5
2015-Jan-21 11:00N 33°54' W 065°15'1 1.1 1018.5 21.5
2015-Jan-21 10:00N 33°53' W 065°14'0 0.0 1017.7 21.5
2015-Jan-21 07:00N 33°53' W 065°14'0 0.0 1018.2 21.5
2015-Jan-21 06:00N 33°53' W 065°14'1 0.3 1018.2 21.5
2015-Jan-21 02:00N 33°53' W 065°13'0 0.2 1018.9 21.5
2015-Jan-21 01:00N 33°52' W 065°13'1 0.4 1018.7 21.5
2015-Jan-20 22:00N 33°52' W 065°12'0 0.1 1018.5 21.5
2015-Jan-20 21:00N 33°52' W 065°12'1 0.6 1018.5 21.5
2015-Jan-20 20:00N 33°51' W 065°11'1 0.4 1018.4 21.5
2015-Jan-20 18:00N 33°51' W 065°12'1 0.4 1017.9 21.5
2015-Jan-20 15:00N 33°50' W 065°11'1 0.7 1019.1 21.5
2015-Jan-20 14:00N 33°50' W 065°10'0 0.2 1018.8 21.5
2015-Jan-20 12:00N 33°50' W 065°10'2 0.8 1017.3 21.5
2015-Jan-20 10:00N 33°49' W 065°09'0 0.0 1015.7 21.5
2015-Jan-20 08:00N 33°49' W 065°09'0 0.1 1015.4 21.5
2015-Jan-20 07:00N 33°49' W 065°09'0 0.0 1015.3 21.5
2015-Jan-20 06:00N 33°49' W 065°09'2 0.5 1015.0 21.5
2015-Jan-20 03:00N 33°48' W 065°07'0 0.4 1014.3 21.5
2015-Jan-20 02:00N 33°48' W 065°07'1 0.7 1013.6 21.5
2015-Jan-20 01:00N 33°48' W 065°06'0 0.0 1013.0 21.5
2015-Jan-20 00:00N 33°48' W 065°06'0 0.2 1012.8 21.5
2015-Jan-19 22:00N 33°48' W 065°06'1 0.7 1011.6 21.5
2015-Jan-19 21:00N 33°48' W 065°05'0 0.1 1010.8 21.6
2015-Jan-19 20:00N 33°48' W 065°05'1 0.8 1010.2 21.6
2015-Jan-19 19:00N 33°48' W 065°04'1 0.8 1009.8 21.6
2015-Jan-19 18:00N 33°49' W 065°03'0 0.0 1009.8 21.7
2015-Jan-19 16:00N 33°49' W 065°03'0 0.1 1010.6 21.7
2015-Jan-19 14:00N 33°49' W 065°03'2 0.5 1009.5 21.6
2015-Jan-19 11:00N 33°48' W 065°02'1 0.5 1010.8 21.6
2015-Jan-19 09:00N 33°49' W 065°00'   1012.2 21.6

Dump ship's entire track history